RYR6RJ LKPR-LIPH
Flight info
| Callsign | RYR6RJ |
|---|---|
| Flight time | 1h 4m |
| Altitude | 34000 |
| Route | DOBEN DCT RUDAP P31 DOSEL DCT EBEDA DCT BADVI DCT BERAS M736 LIZUM N503 LIKDA DCT BAKOR DCT VESAL N503 VIC |
| Aircraft | B38M/M-SADE3FGILRWY/SB1 |
Departure
| Time | 2026-05-08 16:44 |
|---|---|
| Airport | Václav Havel Airport Prague (LKPR) |
Arrival
| Time | 2026-05-08 17:49 |
|---|---|
| Airport | Treviso Airport (LIPH) |
| Time | Latitude | Longitude | Altitude | Speed | Heading |
|---|---|---|---|---|---|
| 2026-05-08 16:24 | 50.10738 | 14.26301 | 1175 ft | 0 kts | 222° |
| 2026-05-08 16:24 | 50.10739 | 14.26301 | 1175 ft | 0 kts | 222° |
| 2026-05-08 16:34 | 50.10750 | 14.26316 | 1177 ft | 3 kts | 220° |
| 2026-05-08 16:34 | 50.10765 | 14.26337 | 1176 ft | 3 kts | 232° |
| 2026-05-08 16:34 | 50.10771 | 14.26354 | 1175 ft | 2 kts | 291° |
| 2026-05-08 16:34 | 50.10768 | 14.26364 | 1175 ft | 1 kts | 304° |
| 2026-05-08 16:35 | 50.10767 | 14.26366 | 1176 ft | 0 kts | 304° |
| 2026-05-08 16:35 | 50.10769 | 14.26360 | 1175 ft | 0 kts | 303° |
| 2026-05-08 16:36 | 50.10789 | 14.26314 | 1176 ft | 12 kts | 304° |
| 2026-05-08 16:37 | 50.10825 | 14.26220 | 1173 ft | 12 kts | 302° |
| 2026-05-08 16:37 | 50.10865 | 14.26098 | 1172 ft | 13 kts | 266° |
| 2026-05-08 16:37 | 50.10806 | 14.26004 | 1178 ft | 12 kts | 215° |
| 2026-05-08 16:37 | 50.10737 | 14.25929 | 1177 ft | 12 kts | 213° |
| 2026-05-08 16:38 | 50.10674 | 14.25863 | 1183 ft | 10 kts | 214° |
| 2026-05-08 16:38 | 50.10614 | 14.25798 | 1185 ft | 12 kts | 214° |
| 2026-05-08 16:38 | 50.10537 | 14.25718 | 1185 ft | 14 kts | 210° |
| 2026-05-08 16:38 | 50.10472 | 14.25608 | 1186 ft | 15 kts | 262° |
| 2026-05-08 16:39 | 50.10448 | 14.25429 | 1175 ft | 20 kts | 258° |
| 2026-05-08 16:39 | 50.10419 | 14.25206 | 1174 ft | 22 kts | 259° |
| 2026-05-08 16:39 | 50.10388 | 14.24959 | 1173 ft | 24 kts | 259° |
| 2026-05-08 16:39 | 50.10359 | 14.24709 | 1174 ft | 24 kts | 259° |
| 2026-05-08 16:40 | 50.10326 | 14.24448 | 1180 ft | 24 kts | 260° |
| 2026-05-08 16:40 | 50.10294 | 14.24207 | 1188 ft | 22 kts | 258° |
| 2026-05-08 16:40 | 50.10267 | 14.23977 | 1194 ft | 20 kts | 258° |
| 2026-05-08 16:40 | 50.10241 | 14.23771 | 1200 ft | 18 kts | 259° |
| 2026-05-08 16:41 | 50.10220 | 14.23600 | 1208 ft | 14 kts | 257° |
| 2026-05-08 16:41 | 50.10200 | 14.23470 | 1213 ft | 11 kts | 256° |
| 2026-05-08 16:41 | 50.10175 | 14.23355 | 1217 ft | 11 kts | 244° |
| 2026-05-08 16:42 | 50.10105 | 14.23121 | 1228 ft | 14 kts | 245° |
| 2026-05-08 16:42 | 50.10060 | 14.22968 | 1233 ft | 17 kts | 245° |
| 2026-05-08 16:42 | 50.10054 | 14.22780 | 1235 ft | 20 kts | 307° |
| 2026-05-08 16:42 | 50.10090 | 14.22732 | 1238 ft | 0 kts | 330° |
| 2026-05-08 16:43 | 50.10118 | 14.22718 | 1240 ft | 11 kts | 350° |
| 2026-05-08 16:43 | 50.10227 | 14.22781 | 1233 ft | 23 kts | 51° |
| 2026-05-08 16:43 | 50.10330 | 14.23113 | 1220 ft | 65 kts | 65° |
| 2026-05-08 16:43 | 50.10630 | 14.24111 | 1187 ft | 136 kts | 65° |
| 2026-05-08 16:44 | 50.11127 | 14.25703 | 1216 ft | 187 kts | 64° |
| 2026-05-08 16:44 | 50.11687 | 14.27697 | 1641 ft | 210 kts | 64° |
| 2026-05-08 16:44 | 50.12295 | 14.29761 | 2746 ft | 204 kts | 63° |
| 2026-05-08 16:44 | 50.12927 | 14.31831 | 3510 ft | 223 kts | 64° |
| 2026-05-08 16:45 | 50.13621 | 14.34125 | 4083 ft | 244 kts | 63° |
| 2026-05-08 16:45 | 50.14344 | 14.36536 | 5018 ft | 249 kts | 64° |
| 2026-05-08 16:45 | 50.15089 | 14.39029 | 5837 ft | 257 kts | 64° |
| 2026-05-08 16:45 | 50.15867 | 14.41635 | 6549 ft | 273 kts | 64° |
| 2026-05-08 16:46 | 50.16719 | 14.44372 | 7215 ft | 286 kts | 57° |
| 2026-05-08 16:46 | 50.18088 | 14.46539 | 8188 ft | 282 kts | 29° |
| 2026-05-08 16:46 | 50.19927 | 14.47560 | 9016 ft | 282 kts | 2° |
| 2026-05-08 16:46 | 50.21860 | 14.47249 | 9918 ft | 281 kts | 339° |
| 2026-05-08 16:47 | 50.23608 | 14.45859 | 10614 ft | 288 kts | 326° |
| 2026-05-08 16:47 | 50.25374 | 14.44167 | 11028 ft | 307 kts | 326° |
| 2026-05-08 16:47 | 50.27226 | 14.42349 | 11561 ft | 321 kts | 326° |
| 2026-05-08 16:47 | 50.29125 | 14.40454 | 12349 ft | 325 kts | 326° |
| 2026-05-08 16:48 | 50.31036 | 14.38527 | 13155 ft | 330 kts | 325° |
| 2026-05-08 16:48 | 50.32971 | 14.36560 | 13957 ft | 334 kts | 325° |
| 2026-05-08 16:48 | 50.34928 | 14.34562 | 14690 ft | 338 kts | 325° |
| 2026-05-08 16:48 | 50.36866 | 14.32478 | 15426 ft | 340 kts | 317° |
| 2026-05-08 16:49 | 50.38337 | 14.29626 | 16178 ft | 338 kts | 295° |
| 2026-05-08 16:49 | 50.39011 | 14.26105 | 16871 ft | 341 kts | 275° |
| 2026-05-08 16:49 | 50.38822 | 14.22406 | 17569 ft | 344 kts | 255° |
| 2026-05-08 16:49 | 50.37938 | 14.18904 | 18262 ft | 349 kts | 247° |
| 2026-05-08 16:50 | 50.36950 | 14.15406 | 18857 ft | 353 kts | 247° |
| 2026-05-08 16:50 | 50.35932 | 14.11895 | 19491 ft | 355 kts | 246° |
| 2026-05-08 16:50 | 50.34897 | 14.08382 | 20098 ft | 357 kts | 246° |
| 2026-05-08 16:50 | 50.33841 | 14.04839 | 20692 ft | 360 kts | 246° |
| 2026-05-08 16:51 | 50.32773 | 14.01284 | 21281 ft | 362 kts | 246° |
| 2026-05-08 16:51 | 50.31694 | 13.97703 | 21858 ft | 365 kts | 246° |
| 2026-05-08 16:51 | 50.30607 | 13.94104 | 22439 ft | 368 kts | 246° |
| 2026-05-08 16:51 | 50.29507 | 13.90470 | 22993 ft | 371 kts | 246° |
| 2026-05-08 16:52 | 50.28400 | 13.86816 | 23555 ft | 373 kts | 246° |
| 2026-05-08 16:52 | 50.27281 | 13.83131 | 24031 ft | 376 kts | 246° |
| 2026-05-08 16:52 | 50.26156 | 13.79430 | 24485 ft | 379 kts | 245° |
| 2026-05-08 16:52 | 50.25023 | 13.75706 | 24945 ft | 381 kts | 245° |
| 2026-05-08 16:53 | 50.21565 | 13.69483 | 25841 ft | 391 kts | 212° |
| 2026-05-08 16:53 | 50.19027 | 13.67889 | 26257 ft | 398 kts | 196° |
| 2026-05-08 16:53 | 50.16330 | 13.67055 | 26679 ft | 401 kts | 194° |
| 2026-05-08 16:54 | 50.13552 | 13.66202 | 27072 ft | 404 kts | 194° |
| 2026-05-08 16:54 | 50.10819 | 13.65401 | 27502 ft | 406 kts | 193° |
| 2026-05-08 16:54 | 50.08024 | 13.64605 | 27896 ft | 409 kts | 193° |
| 2026-05-08 16:54 | 50.05217 | 13.63822 | 28306 ft | 411 kts | 193° |
| 2026-05-08 16:55 | 50.02402 | 13.63041 | 28735 ft | 412 kts | 193° |
| 2026-05-08 16:55 | 49.99565 | 13.62258 | 29119 ft | 415 kts | 193° |
| 2026-05-08 16:55 | 49.96716 | 13.61472 | 29504 ft | 417 kts | 193° |
| 2026-05-08 16:55 | 49.93857 | 13.60685 | 29886 ft | 419 kts | 193° |
| 2026-05-08 16:56 | 49.90979 | 13.59894 | 30231 ft | 421 kts | 193° |
| 2026-05-08 16:56 | 49.88087 | 13.59099 | 30538 ft | 423 kts | 193° |
| 2026-05-08 16:56 | 49.85180 | 13.58302 | 30828 ft | 426 kts | 192° |
| 2026-05-08 16:56 | 49.82261 | 13.57502 | 31158 ft | 426 kts | 193° |
| 2026-05-08 16:57 | 49.79341 | 13.56703 | 31487 ft | 428 kts | 192° |
| 2026-05-08 16:57 | 49.76439 | 13.55717 | 31786 ft | 426 kts | 201° |
| 2026-05-08 16:57 | 49.73685 | 13.54066 | 32205 ft | 423 kts | 202° |
| 2026-05-08 16:57 | 49.70914 | 13.52531 | 32544 ft | 424 kts | 202° |
| 2026-05-08 16:58 | 49.68135 | 13.50984 | 32929 ft | 424 kts | 202° |
| 2026-05-08 16:58 | 49.65375 | 13.49441 | 33308 ft | 423 kts | 202° |
| 2026-05-08 16:58 | 49.62610 | 13.47895 | 33683 ft | 422 kts | 202° |
| 2026-05-08 16:58 | 49.59851 | 13.46353 | 34074 ft | 421 kts | 202° |
| 2026-05-08 16:59 | 49.54359 | 13.43291 | 34099 ft | 417 kts | 202° |
| 2026-05-08 16:59 | 49.48895 | 13.40250 | 34098 ft | 418 kts | 202° |
| 2026-05-08 17:00 | 49.43437 | 13.37221 | 34092 ft | 417 kts | 202° |
| 2026-05-08 17:00 | 49.38008 | 13.34214 | 34093 ft | 412 kts | 203° |
| 2026-05-08 17:01 | 49.32615 | 13.31235 | 34085 ft | 412 kts | 203° |
| 2026-05-08 17:01 | 49.27260 | 13.28283 | 34077 ft | 411 kts | 203° |
| 2026-05-08 17:02 | 49.21989 | 13.24846 | 34087 ft | 408 kts | 210° |
| 2026-05-08 17:02 | 49.16927 | 13.21077 | 34055 ft | 403 kts | 209° |
| 2026-05-08 17:03 | 49.11871 | 13.17371 | 34068 ft | 401 kts | 210° |
| 2026-05-08 17:03 | 49.06858 | 13.13621 | 34079 ft | 401 kts | 209° |
| 2026-05-08 17:04 | 49.01868 | 13.09906 | 34061 ft | 401 kts | 209° |
| 2026-05-08 17:04 | 48.96866 | 13.06193 | 34064 ft | 398 kts | 209° |
| 2026-05-08 17:05 | 48.91909 | 13.02522 | 34039 ft | 396 kts | 209° |
| 2026-05-08 17:05 | 48.86946 | 12.98853 | 34067 ft | 397 kts | 209° |
| 2026-05-08 17:06 | 48.81981 | 12.95190 | 34066 ft | 396 kts | 209° |
| 2026-05-08 17:06 | 48.77033 | 12.91549 | 34071 ft | 391 kts | 209° |
| 2026-05-08 17:07 | 48.72376 | 12.87514 | 34049 ft | 382 kts | 225° |
| 2026-05-08 17:07 | 48.68467 | 12.82051 | 34088 ft | 383 kts | 223° |
| 2026-05-08 17:08 | 48.64498 | 12.76625 | 34069 ft | 384 kts | 224° |
| 2026-05-08 17:08 | 48.60556 | 12.71183 | 34063 ft | 384 kts | 224° |
| 2026-05-08 17:09 | 48.56640 | 12.65746 | 34062 ft | 381 kts | 223° |
| 2026-05-08 17:09 | 48.52748 | 12.60352 | 34055 ft | 380 kts | 223° |
| 2026-05-08 17:10 | 48.48851 | 12.54964 | 34055 ft | 380 kts | 223° |
| 2026-05-08 17:10 | 48.44944 | 12.49576 | 34056 ft | 381 kts | 223° |
| 2026-05-08 17:11 | 48.40924 | 12.44393 | 34063 ft | 381 kts | 221° |
| 2026-05-08 17:11 | 48.36886 | 12.39231 | 34053 ft | 381 kts | 221° |
| 2026-05-08 17:12 | 48.32855 | 12.34079 | 34059 ft | 381 kts | 221° |
| 2026-05-08 17:12 | 48.28819 | 12.28931 | 34052 ft | 381 kts | 221° |
| 2026-05-08 17:13 | 48.24800 | 12.23815 | 34048 ft | 381 kts | 221° |
| 2026-05-08 17:13 | 48.20757 | 12.18680 | 34048 ft | 381 kts | 221° |
| 2026-05-08 17:14 | 48.16671 | 12.13649 | 34039 ft | 382 kts | 213° |
| 2026-05-08 17:14 | 48.14234 | 12.12079 | 34044 ft | 385 kts | 198° |
| 2026-05-08 17:14 | 48.11645 | 12.10992 | 34027 ft | 387 kts | 201° |
| 2026-05-08 17:15 | 48.06494 | 12.08665 | 34045 ft | 388 kts | 200° |
| 2026-05-08 17:15 | 48.01311 | 12.06434 | 34022 ft | 387 kts | 199° |
| 2026-05-08 17:16 | 47.96959 | 12.04585 | 34040 ft | 389 kts | 199° |
| 2026-05-08 17:16 | 47.91746 | 12.02377 | 34031 ft | 389 kts | 199° |
| 2026-05-08 17:17 | 47.86571 | 12.00192 | 34031 ft | 389 kts | 199° |
| 2026-05-08 17:17 | 47.81364 | 11.97997 | 34025 ft | 389 kts | 199° |
| 2026-05-08 17:18 | 47.76153 | 11.95805 | 34035 ft | 390 kts | 199° |
| 2026-05-08 17:18 | 47.70957 | 11.93451 | 34026 ft | 389 kts | 201° |
| 2026-05-08 17:19 | 47.65805 | 11.90999 | 34022 ft | 389 kts | 200° |
| 2026-05-08 17:19 | 47.60637 | 11.88556 | 33996 ft | 390 kts | 200° |
| 2026-05-08 17:20 | 47.55470 | 11.86121 | 34034 ft | 391 kts | 200° |
| 2026-05-08 17:20 | 47.50309 | 11.83695 | 33925 ft | 382 kts | 200° |
| 2026-05-08 17:21 | 47.47804 | 11.82518 | 33595 ft | 374 kts | 200° |
| 2026-05-08 17:21 | 47.45358 | 11.81370 | 33273 ft | 367 kts | 200° |
| 2026-05-08 17:21 | 47.42944 | 11.80239 | 32926 ft | 361 kts | 200° |
| 2026-05-08 17:21 | 47.40553 | 11.79120 | 32358 ft | 361 kts | 200° |
| 2026-05-08 17:22 | 47.38164 | 11.78002 | 31796 ft | 361 kts | 200° |
| 2026-05-08 17:22 | 47.35741 | 11.77013 | 31258 ft | 363 kts | 191° |
| 2026-05-08 17:22 | 47.33211 | 11.76868 | 30795 ft | 364 kts | 184° |
| 2026-05-08 17:22 | 47.30682 | 11.76715 | 30269 ft | 364 kts | 186° |
| 2026-05-08 17:23 | 47.28160 | 11.76545 | 29793 ft | 363 kts | 186° |
| 2026-05-08 17:23 | 47.25638 | 11.76392 | 29292 ft | 362 kts | 186° |
| 2026-05-08 17:23 | 47.23133 | 11.76250 | 28844 ft | 359 kts | 186° |
| 2026-05-08 17:23 | 47.20650 | 11.76111 | 28337 ft | 358 kts | 186° |
| 2026-05-08 17:24 | 47.18168 | 11.75972 | 27883 ft | 356 kts | 186° |
| 2026-05-08 17:24 | 47.15695 | 11.75835 | 27416 ft | 356 kts | 185° |
| 2026-05-08 17:24 | 47.13226 | 11.75698 | 26985 ft | 354 kts | 185° |
| 2026-05-08 17:24 | 47.10799 | 11.75568 | 26569 ft | 353 kts | 185° |
| 2026-05-08 17:25 | 47.08342 | 11.75440 | 26133 ft | 353 kts | 185° |
| 2026-05-08 17:25 | 47.05894 | 11.75305 | 25705 ft | 351 kts | 185° |
| 2026-05-08 17:25 | 47.03455 | 11.75175 | 25295 ft | 350 kts | 185° |
| 2026-05-08 17:25 | 47.01022 | 11.75046 | 24873 ft | 349 kts | 185° |
| 2026-05-08 17:26 | 46.98602 | 11.74913 | 24514 ft | 348 kts | 184° |
| 2026-05-08 17:26 | 46.96185 | 11.74781 | 24116 ft | 348 kts | 184° |
| 2026-05-08 17:26 | 46.93777 | 11.74649 | 23735 ft | 346 kts | 184° |
| 2026-05-08 17:26 | 46.91375 | 11.74517 | 23287 ft | 346 kts | 184° |
| 2026-05-08 17:27 | 46.88976 | 11.74386 | 22863 ft | 344 kts | 184° |
| 2026-05-08 17:27 | 46.86593 | 11.74257 | 22531 ft | 341 kts | 184° |
| 2026-05-08 17:27 | 46.84225 | 11.74127 | 22143 ft | 340 kts | 184° |
| 2026-05-08 17:27 | 46.81872 | 11.73999 | 21795 ft | 337 kts | 184° |
| 2026-05-08 17:28 | 46.79531 | 11.73872 | 21442 ft | 334 kts | 184° |
| 2026-05-08 17:28 | 46.77247 | 11.73748 | 21393 ft | 322 kts | 184° |
| 2026-05-08 17:28 | 46.75047 | 11.73628 | 21333 ft | 312 kts | 184° |
| 2026-05-08 17:28 | 46.72854 | 11.73508 | 21276 ft | 322 kts | 184° |
| 2026-05-08 17:29 | 46.70595 | 11.73387 | 21209 ft | 328 kts | 184° |
| 2026-05-08 17:29 | 46.68322 | 11.73264 | 21168 ft | 322 kts | 184° |
| 2026-05-08 17:29 | 46.66124 | 11.73144 | 21107 ft | 312 kts | 184° |
| 2026-05-08 17:29 | 46.63936 | 11.73026 | 21061 ft | 321 kts | 184° |
| 2026-05-08 17:30 | 46.61679 | 11.72903 | 21018 ft | 328 kts | 184° |
| 2026-05-08 17:30 | 46.59385 | 11.72775 | 20853 ft | 331 kts | 184° |
| 2026-05-08 17:30 | 46.57081 | 11.72647 | 20585 ft | 331 kts | 183° |
| 2026-05-08 17:30 | 46.54780 | 11.72518 | 20279 ft | 330 kts | 183° |
| 2026-05-08 17:31 | 46.52490 | 11.72390 | 20022 ft | 327 kts | 183° |
| 2026-05-08 17:31 | 46.50216 | 11.72263 | 20004 ft | 328 kts | 183° |
| 2026-05-08 17:31 | 46.47926 | 11.72135 | 20027 ft | 330 kts | 183° |
| 2026-05-08 17:31 | 46.45638 | 11.72008 | 20023 ft | 329 kts | 183° |
| 2026-05-08 17:32 | 46.43350 | 11.71880 | 20035 ft | 330 kts | 183° |
| 2026-05-08 17:32 | 46.41057 | 11.71753 | 20028 ft | 329 kts | 184° |
| 2026-05-08 17:32 | 46.38768 | 11.71628 | 20042 ft | 329 kts | 183° |
| 2026-05-08 17:32 | 46.36476 | 11.71508 | 20059 ft | 330 kts | 183° |
| 2026-05-08 17:33 | 46.34186 | 11.71386 | 20050 ft | 329 kts | 183° |
| 2026-05-08 17:33 | 46.31896 | 11.71264 | 20053 ft | 329 kts | 183° |
| 2026-05-08 17:33 | 46.29609 | 11.71143 | 20054 ft | 329 kts | 183° |
| 2026-05-08 17:33 | 46.27323 | 11.71022 | 20053 ft | 329 kts | 183° |
| 2026-05-08 17:34 | 46.25038 | 11.70901 | 20054 ft | 329 kts | 183° |
| 2026-05-08 17:34 | 46.22750 | 11.70780 | 19966 ft | 329 kts | 183° |
| 2026-05-08 17:34 | 46.20397 | 11.70656 | 19057 ft | 347 kts | 183° |
| 2026-05-08 17:34 | 46.17963 | 11.70528 | 18376 ft | 355 kts | 183° |
| 2026-05-08 17:35 | 46.15469 | 11.70395 | 17596 ft | 363 kts | 183° |
| 2026-05-08 17:35 | 46.12919 | 11.70261 | 16835 ft | 369 kts | 183° |
| 2026-05-08 17:35 | 46.10331 | 11.70124 | 16073 ft | 376 kts | 183° |
| 2026-05-08 17:35 | 46.07699 | 11.69982 | 15331 ft | 382 kts | 183° |
| 2026-05-08 17:36 | 46.05055 | 11.69839 | 15023 ft | 375 kts | 183° |
| 2026-05-08 17:36 | 46.02499 | 11.69703 | 15066 ft | 358 kts | 183° |
| 2026-05-08 17:36 | 46.00056 | 11.69572 | 15043 ft | 344 kts | 183° |
| 2026-05-08 17:36 | 45.97717 | 11.69446 | 15066 ft | 329 kts | 183° |
| 2026-05-08 17:37 | 45.95482 | 11.69326 | 15055 ft | 316 kts | 183° |
| 2026-05-08 17:37 | 45.93322 | 11.69210 | 15056 ft | 307 kts | 183° |
| 2026-05-08 17:37 | 45.91195 | 11.69096 | 15059 ft | 305 kts | 183° |
| 2026-05-08 17:37 | 45.89072 | 11.68983 | 15052 ft | 305 kts | 183° |
| 2026-05-08 17:38 | 45.86961 | 11.68870 | 15048 ft | 301 kts | 183° |
| 2026-05-08 17:38 | 45.84886 | 11.68760 | 15057 ft | 298 kts | 183° |
| 2026-05-08 17:38 | 45.82814 | 11.68649 | 15046 ft | 297 kts | 182° |
| 2026-05-08 17:38 | 45.80733 | 11.68539 | 14555 ft | 303 kts | 183° |
| 2026-05-08 17:39 | 45.78600 | 11.68425 | 13969 ft | 311 kts | 182° |
| 2026-05-08 17:39 | 45.76405 | 11.68308 | 13316 ft | 319 kts | 182° |
| 2026-05-08 17:39 | 45.74167 | 11.68190 | 12649 ft | 326 kts | 182° |
| 2026-05-08 17:39 | 45.71905 | 11.68070 | 11971 ft | 323 kts | 182° |
| 2026-05-08 17:40 | 45.69677 | 11.67952 | 11340 ft | 320 kts | 182° |
| 2026-05-08 17:40 | 45.67460 | 11.67834 | 10720 ft | 317 kts | 182° |
| 2026-05-08 17:40 | 45.65262 | 11.67727 | 10113 ft | 314 kts | 179° |
| 2026-05-08 17:40 | 45.63153 | 11.68310 | 9443 ft | 309 kts | 154° |
| 2026-05-08 17:41 | 45.61454 | 11.70092 | 9122 ft | 294 kts | 138° |
| 2026-05-08 17:41 | 45.59914 | 11.71827 | 9111 ft | 271 kts | 144° |
| 2026-05-08 17:41 | 45.58461 | 11.73360 | 9104 ft | 250 kts | 143° |
| 2026-05-08 17:41 | 45.57124 | 11.74782 | 9088 ft | 230 kts | 143° |
| 2026-05-08 17:42 | 45.55888 | 11.76103 | 8939 ft | 216 kts | 142° |
| 2026-05-08 17:42 | 45.54904 | 11.77638 | 8639 ft | 206 kts | 115° |
| 2026-05-08 17:42 | 45.54652 | 11.79539 | 8371 ft | 190 kts | 83° |
| 2026-05-08 17:42 | 45.54950 | 11.81321 | 8077 ft | 180 kts | 74° |
| 2026-05-08 17:43 | 45.55320 | 11.83052 | 7811 ft | 185 kts | 72° |
| 2026-05-08 17:43 | 45.55738 | 11.84816 | 7582 ft | 189 kts | 71° |
| 2026-05-08 17:43 | 45.56182 | 11.86584 | 7320 ft | 189 kts | 70° |
| 2026-05-08 17:43 | 45.56636 | 11.88344 | 7044 ft | 189 kts | 70° |
| 2026-05-08 17:44 | 45.57092 | 11.90094 | 6775 ft | 188 kts | 70° |
| 2026-05-08 17:44 | 45.57539 | 11.91823 | 6415 ft | 189 kts | 70° |
| 2026-05-08 17:44 | 45.57992 | 11.93573 | 5852 ft | 188 kts | 69° |
| 2026-05-08 17:44 | 45.58432 | 11.95296 | 5324 ft | 180 kts | 70° |
| 2026-05-08 17:45 | 45.58863 | 11.96921 | 4826 ft | 171 kts | 68° |
| 2026-05-08 17:45 | 45.59295 | 11.98494 | 4175 ft | 171 kts | 68° |
| 2026-05-08 17:45 | 45.59713 | 12.00049 | 3645 ft | 165 kts | 68° |
| 2026-05-08 17:45 | 45.60105 | 12.01511 | 3453 ft | 154 kts | 69° |
| 2026-05-08 17:46 | 45.60487 | 12.02947 | 3460 ft | 156 kts | 69° |
| 2026-05-08 17:46 | 45.60875 | 12.04405 | 3083 ft | 158 kts | 69° |
| 2026-05-08 17:46 | 45.61271 | 12.05900 | 2448 ft | 163 kts | 70° |
| 2026-05-08 17:46 | 45.61666 | 12.07392 | 1976 ft | 157 kts | 71° |
| 2026-05-08 17:47 | 45.62044 | 12.08819 | 1672 ft | 152 kts | 71° |
| 2026-05-08 17:47 | 45.62419 | 12.10236 | 1432 ft | 153 kts | 70° |
| 2026-05-08 17:47 | 45.62794 | 12.11653 | 1197 ft | 153 kts | 70° |
| 2026-05-08 17:47 | 45.63043 | 12.12590 | 1044 ft | 152 kts | 70° |
| 2026-05-08 17:48 | 45.63545 | 12.14488 | 740 ft | 153 kts | 70° |
| 2026-05-08 17:48 | 45.63928 | 12.15893 | 488 ft | 151 kts | 69° |
| 2026-05-08 17:48 | 45.64300 | 12.17276 | 237 ft | 149 kts | 73° |
| 2026-05-08 17:48 | 45.64658 | 12.18657 | 61 ft | 142 kts | 72° |
| 2026-05-08 17:49 | 45.64926 | 12.19687 | 60 ft | 56 kts | 69° |
| 2026-05-08 17:49 | 45.65033 | 12.20081 | 59 ft | 33 kts | 62° |
| 2026-05-08 17:49 | 45.65139 | 12.20221 | 64 ft | 17 kts | 29° |
| 2026-05-08 17:49 | 45.65179 | 12.20251 | 59 ft | 0 kts | 24° |